Time;durP1;ratioP1;P1;durP2;ratioP2;P2;SDS_P1;SDS_P2;PMS_P1;PMS_P2;Temp;Humidity;BMP_temperature;BMP_pressure;BME280_temperature;BME280_humidity;BME280_pressure;Samples;Min_cycle;Max_cycle;Signal;HPM_P1;HPM_P2
2023/10/17 01:40:49;;;;;;;10.17;5.77;;;5.90;99.90;;;;;;5015477;28;20244;-48
2023/10/17 01:43:18;;;;;;;8.77;5.10;;;5.90;99.90;;;;;;5016974;28;20180;-48
2023/10/17 01:49:10;;;;;;;9.37;4.90;;;5.90;99.90;;;;;;5017033;28;20542;-47
2023/10/17 01:52:27;;;;;;;7.03;4.87;;;5.90;99.90;;;;;;5016804;28;20672;-47
2023/10/17 01:54:57;;;;;;;7.20;4.87;;;5.90;99.90;;;;;;5017483;28;20152;-47
2023/10/17 01:57:29;;;;;;;11.30;5.83;;;5.90;99.90;;;;;;4998242;28;20186;-47
2023/10/17 02:00:00;;;;;;;9.37;5.40;;;5.90;99.90;;;;;;5016844;28;20631;-46
2023/10/17 02:02:32;;;;;;;7.90;5.20;;;5.90;99.90;;;;;;4998566;28;20188;-48
2023/10/17 02:05:06;;;;;;;7.37;5.23;;;5.90;99.90;;;;;;5016996;28;20207;-42
2023/10/17 02:07:33;;;;;;;8.67;5.20;;;5.90;99.90;;;;;;5016927;28;20180;-42
2023/10/17 02:13:41;;;;;;;7.60;5.10;;;5.90;99.90;;;;;;5016658;28;20587;-44
2023/10/17 02:16:10;;;;;;;6.97;4.77;;;6.00;99.90;;;;;;4998927;28;20219;-45
2023/10/17 02:18:36;;;;;;;12.03;4.83;;;5.90;99.90;;;;;;5016343;28;20196;-43
2023/10/17 02:21:04;;;;;;;10.17;4.60;;;5.90;99.90;;;;;;5016452;28;20203;-43
2023/10/17 02:23:51;;;;;;;7.50;4.33;;;6.00;99.90;;;;;;4999303;28;20288;-43
2023/10/17 02:26:21;;;;;;;7.47;4.20;;;5.90;99.90;;;;;;5002034;28;20165;-45
2023/10/17 02:28:53;;;;;;;7.27;4.73;;;5.90;99.90;;;;;;4999097;28;20276;-43
2023/10/17 06:48:08;;;;;;;10.27;4.50;;;6.30;99.90;;;;;;5037580;28;20208;-45
2023/10/17 06:53:27;;;;;;;11.77;5.03;;;6.30;99.90;;;;;;5035846;28;20176;-43
2023/10/17 07:03:34;;;;;;;5.60;4.13;;;6.50;99.90;;;;;;5013928;28;20231;-47
2023/10/17 07:06:13;;;;;;;5.07;4.03;;;6.60;99.90;;;;;;5015472;28;20343;-48
2023/10/17 07:08:41;;;;;;;7.03;4.50;;;6.60;99.90;;;;;;5015864;28;20639;-48
2023/10/17 07:11:18;;;;;;;6.67;3.90;;;6.60;99.90;;;;;;4998018;28;20209;-47
2023/10/17 07:16:42;;;;;;;7.13;4.13;;;6.70;99.90;;;;;;5015451;28;20547;-48
2023/10/17 07:24:29;;;;;;;8.97;3.50;;;6.90;99.90;;;;;;5015007;28;20157;-48
2023/10/17 07:26:56;;;;;;;6.67;3.50;;;6.90;99.90;;;;;;4998201;28;20260;-48
2023/10/17 07:29:25;;;;;;;4.60;3.53;;;7.00;99.90;;;;;;5015012;28;20223;-48
2023/10/17 07:32:16;;;;;;;6.57;3.97;;;7.10;99.90;;;;;;5018059;28;20204;-46
2023/10/17 07:34:46;;;;;;;5.40;3.80;;;7.10;99.90;;;;;;5016747;28;20571;-47
2023/10/17 07:39:39;;;;;;;7.30;3.60;;;7.20;99.90;;;;;;5014834;28;20198;-47
2023/10/17 07:42:14;;;;;;;4.77;4.00;;;7.20;99.90;;;;;;5015071;28;20207;-49
2023/10/17 07:44:43;;;;;;;7.57;3.93;;;7.30;99.90;;;;;;4998507;28;20165;-46
2023/10/17 07:47:09;;;;;;;9.13;3.60;;;7.30;99.90;;;;;;5014890;28;20181;-48
2023/10/17 07:49:41;;;;;;;7.87;3.67;;;7.40;99.90;;;;;;5014710;28;20178;-47
2023/10/17 07:52:22;;;;;;;8.17;3.33;;;7.40;99.90;;;;;;4996999;28;20181;-48
2023/10/17 07:57:40;;;;;;;4.17;3.30;;;7.60;99.90;;;;;;5014973;28;20173;-48
2023/10/17 08:03:15;;;;;;;3.87;3.00;;;7.70;99.90;;;;;;4997477;28;20205;-48
2023/10/17 08:08:33;;;;;;;5.03;3.30;;;7.80;99.90;;;;;;5015020;28;20212;-47
2023/10/17 08:11:00;;;;;;;7.67;3.70;;;7.90;99.90;;;;;;4996665;28;20688;-47
2023/10/17 08:13:28;;;;;;;6.37;3.73;;;7.90;99.90;;;;;;5014246;28;20189;-47
2023/10/17 08:16:05;;;;;;;4.67;3.23;;;7.90;99.90;;;;;;4996551;28;20269;-47
2023/10/17 08:18:39;;;;;;;6.70;3.27;;;8.00;99.90;;;;;;5014148;28;20165;-48
2023/10/17 08:23:46;;;;;;;5.60;3.47;;;8.00;99.90;;;;;;5014211;28;20161;-42
2023/10/17 08:26:17;;;;;;;7.20;3.27;;;8.10;99.90;;;;;;4996399;28;20189;-43
2023/10/17 08:36:46;;;;;;;9.87;3.60;;;8.20;99.90;;;;;;5013285;28;20540;-46
2023/10/17 08:41:57;;;;;;;8.73;3.80;;;8.20;99.90;;;;;;5013989;28;20204;-49
2023/10/17 08:44:31;;;;;;;6.93;3.57;;;8.40;99.90;;;;;;5013722;28;20186;-48
2023/10/17 08:46:58;;;;;;;6.77;3.33;;;8.40;99.90;;;;;;4980759;28;20177;-49
2023/10/17 08:49:27;;;;;;;8.43;3.53;;;8.50;99.90;;;;;;4996670;28;20189;-47
2023/10/17 08:51:56;;;;;;;8.43;3.93;;;8.50;99.90;;;;;;5013817;28;20265;-48
2023/10/17 08:54:30;;;;;;;4.80;3.53;;;8.50;99.90;;;;;;5014025;28;20214;-46
2023/10/17 08:56:59;;;;;;;6.63;4.00;;;8.60;99.90;;;;;;5014001;28;20177;-48
2023/10/17 09:02:15;;;;;;;7.67;3.40;;;8.70;99.90;;;;;;5013555;28;20280;-46
2023/10/17 09:04:44;;;;;;;4.60;3.80;;;8.70;99.90;;;;;;5013901;28;20185;-45
2023/10/17 09:07:22;;;;;;;5.50;3.87;;;8.70;99.90;;;;;;4980335;28;20177;-47
2023/10/17 09:09:54;;;;;;;9.27;3.53;;;8.70;99.90;;;;;;5013550;28;20210;-45
2023/10/17 09:12:27;;;;;;;4.60;3.70;;;8.80;99.90;;;;;;4980582;28;20194;-47
2023/10/17 09:14:56;;;;;;;12.13;3.90;;;8.70;99.90;;;;;;4995955;28;20201;-46
2023/10/17 09:19:52;;;;;;;4.67;3.13;;;8.80;99.90;;;;;;4996842;28;20251;-48
2023/10/17 09:22:40;;;;;;;7.67;3.53;;;8.80;99.90;;;;;;4995879;28;20192;-47
2023/10/17 09:25:23;;;;;;;7.93;3.40;;;8.80;99.90;;;;;;5013439;28;20618;-48
2023/10/17 09:27:50;;;;;;;7.60;3.50;;;8.80;99.90;;;;;;4995720;28;20176;-43
2023/10/17 09:30:17;;;;;;;7.50;3.50;;;8.80;99.90;;;;;;5013249;28;20259;-43
2023/10/17 09:35:40;;;;;;;3.67;2.77;;;8.90;99.90;;;;;;4627524;22;20639;-43
2023/10/17 09:38:07;;;;;;;6.20;3.17;;;8.90;99.90;;;;;;5051750;28;20177;-43
2023/10/17 09:40:33;;;;;;;6.57;3.10;;;8.80;99.90;;;;;;5051576;28;20215;-43
2023/10/17 09:43:00;;;;;;;6.43;3.60;;;8.90;99.90;;;;;;5053081;28;20173;-43
2023/10/17 09:45:35;;;;;;;4.50;3.00;;;9.00;99.90;;;;;;5052830;28;20177;-42
2023/10/17 09:48:04;;;;;;;5.90;3.87;;;9.00;99.90;;;;;;5054582;28;20157;-41
2023/10/17 09:50:37;;;;;;;6.90;3.60;;;9.10;99.90;;;;;;5055292;28;20208;-41
2023/10/17 09:53:13;;;;;;;4.20;2.80;;;9.30;99.90;;;;;;5056625;28;20522;-42
2023/10/17 09:55:44;;;;;;;6.43;3.27;;;9.40;99.90;;;;;;5056628;28;20173;-44
2023/10/17 09:58:13;;;;;;;4.13;2.80;;;9.60;99.90;;;;;;5055560;28;20176;-44
2023/10/17 10:00:46;;;;;;;7.43;3.00;;;9.70;99.90;;;;;;5056684;28;20231;-43
2023/10/17 10:03:13;;;;;;;7.67;3.13;;;9.80;99.90;;;;;;5056684;28;20163;-43
2023/10/17 10:05:39;;;;;;;6.37;2.70;;;9.90;99.90;;;;;;5056615;28;20180;-43
2023/10/17 10:08:29;;;;;;;4.60;2.87;;;10.00;99.90;;;;;;5056310;28;20179;-42
2023/10/17 10:10:56;;;;;;;4.53;3.00;;;10.10;99.90;;;;;;5055303;28;20665;-43
2023/10/17 10:13:24;;;;;;;6.00;3.20;;;10.20;99.90;;;;;;5056467;28;20232;-44
2023/10/17 10:16:04;;;;;;;3.73;2.57;;;10.30;99.90;;;;;;5056491;28;20206;-46
2023/10/17 10:18:35;;;;;;;3.77;2.57;;;10.40;99.90;;;;;;5056675;28;20180;-46
2023/10/17 10:21:07;;;;;;;3.57;2.10;;;10.60;99.90;;;;;;5054925;28;20732;-44
2023/10/17 10:23:35;;;;;;;6.50;2.40;;;10.70;99.90;;;;;;5054984;28;20664;-41
2023/10/17 10:26:17;;;;;;;7.87;2.67;;;10.80;99.90;;;;;;5056100;28;20176;-39
2023/10/17 10:28:43;;;;;;;3.47;2.53;;;10.90;97.50;;;;;;5055998;28;20161;-43
2023/10/17 10:31:24;;;;;;;5.83;2.50;;;11.00;91.20;;;;;;5056142;28;20601;-42
2023/10/17 10:33:55;;;;;;;11.50;5.33;;;11.10;94.00;;;;;;5055679;28;20172;-44
2023/10/17 10:36:24;;;;;;;5.43;3.40;;;11.10;97.00;;;;;;5054742;28;20265;-43
2023/10/17 10:38:55;;;;;;;6.87;3.43;;;11.20;95.10;;;;;;5055728;28;20173;-48
2023/10/17 10:41:25;;;;;;;6.93;3.17;;;11.30;81.50;;;;;;5055719;28;20207;-43
2023/10/17 10:44:01;;;;;;;4.70;2.13;;;11.30;68.90;;;;;;5056487;28;20161;-48
2023/10/17 10:46:28;;;;;;;5.80;3.10;;;11.40;90.00;;;;;;5055842;28;20670;-43
2023/10/17 10:48:54;;;;;;;4.50;2.63;;;11.60;91.00;;;;;;5055890;28;20172;-42
2023/10/17 10:51:25;;;;;;;5.87;3.10;;;11.60;87.80;;;;;;5054039;28;20195;-44
2023/10/17 10:53:55;;;;;;;3.37;2.60;;;11.70;64.00;;;;;;5055418;28;20655;-43
2023/10/17 10:56:22;;;;;;;5.53;2.60;;;11.80;68.50;;;;;;5055941;28;20173;-43
2023/10/17 10:58:55;;;;;;;4.80;1.97;;;11.90;67.80;;;;;;5055156;28;20250;-43
2023/10/17 11:01:22;;;;;;;5.50;2.13;;;12.00;71.70;;;;;;5053789;28;20196;-43
2023/10/17 11:03:49;;;;;;;4.87;2.57;;;12.20;71.60;;;;;;5055320;28;20251;-42
2023/10/17 11:06:25;;;;;;;4.07;2.10;;;12.20;57.00;;;;;;5037465;28;20177;-44
2023/10/17 11:08:52;;;;;;;4.23;1.70;;;12.30;58.00;;;;;;5054023;28;20208;-43
2023/10/17 11:11:19;;;;;;;4.03;2.30;;;12.30;42.80;;;;;;5055051;28;20598;-44
2023/10/17 11:13:48;;;;;;;9.20;2.37;;;12.50;50.60;;;;;;5055082;28;20178;-44
2023/10/17 11:16:18;;;;;;;2.60;2.13;;;12.50;22.00;;;;;;5055043;28;20176;-43
2023/10/17 11:18:44;;;;;;;3.67;2.33;;;12.60;36.80;;;;;;5054893;28;20181;-42
2023/10/17 11:21:11;;;;;;;5.30;2.90;;;12.70;31.70;;;;;;5054854;28;20289;-43
2023/10/17 11:23:46;;;;;;;5.27;3.10;;;12.70;33.50;;;;;;5054852;28;20644;-42
2023/10/17 11:26:14;;;;;;;3.13;2.00;;;12.80;8.70;;;;;;5053728;28;20657;-42
2023/10/17 11:28:46;;;;;;;6.50;2.30;;;12.80;23.30;;;;;;5053582;28;20184;-44
2023/10/17 11:31:21;;;;;;;3.70;2.30;;;12.90;23.80;;;;;;5053556;28;20231;-44
2023/10/17 11:33:59;;;;;;;3.73;2.10;;;13.00;20.70;;;;;;5053460;28;20202;-44
2023/10/17 11:36:35;;;;;;;3.00;1.60;;;13.00;28.50;;;;;;5053526;28;20229;-43
2023/10/17 11:39:05;;;;;;;2.83;1.83;;;13.10;11.90;;;;;;5054704;28;20170;-43
2023/10/17 11:44:27;;;;;;;5.63;1.70;;;13.20;1.00;;;;;;2437877;22;20243;-43
2023/10/17 11:47:03;;;;;;;2.73;1.87;;;13.20;10.30;;;;;;5054873;28;20149;-45
2023/10/17 11:49:36;;;;;;;4.40;2.00;;;13.30;10.60;;;;;;5053067;28;20184;-42
2023/10/17 11:52:09;;;;;;;3.87;1.80;;;13.30;12.50;;;;;;5053104;28;20260;-43
2023/10/17 12:02:14;;;;;;;4.10;1.83;;;13.70;15.30;;;;;;5032696;28;20217;-47
2023/10/17 12:04:40;;;;;;;1.70;1.30;;;13.80;29.50;;;;;;5034170;28;20187;-47
2023/10/17 12:07:07;;;;;;;3.07;1.73;;;13.80;1.00;;;;;;5034158;28;20185;-49
2023/10/17 12:09:33;;;;;;;2.70;1.40;;;13.80;26.90;;;;;;5034045;28;20671;-48
2023/10/17 12:11:59;;;;;;;6.50;1.60;;;13.90;1.00;;;;;;5000518;28;20185;-47
2023/10/17 12:14:26;;;;;;;4.03;1.40;;;13.90;1.00;;;;;;4999889;28;20184;-49
2023/10/17 12:16:58;;;;;;;2.13;1.40;;;13.80;1.00;;;;;;5034373;28;20543;-48
2023/10/17 12:19:26;;;;;;;3.20;1.30;;;13.90;17.80;;;;;;5034292;28;20207;-48
2023/10/17 12:21:55;;;;;;;3.03;1.93;;;13.90;1.00;;;;;;5034291;28;20181;-49
2023/10/17 12:24:28;;;;;;;6.50;2.00;;;13.80;1.00;;;;;;5034074;28;20177;-49
2023/10/17 12:26:55;;;;;;;2.50;1.33;;;13.70;1.00;;;;;;5034162;28;20180;-50
2023/10/17 12:29:37;;;;;;;3.77;1.70;;;13.70;1.00;;;;;;5033853;28;20751;-48
2023/10/17 12:32:13;;;;;;;4.10;1.53;;;13.70;1.00;;;;;;5037513;28;20184;-47
2023/10/17 12:34:42;;;;;;;2.57;1.60;;;13.80;1.00;;;;;;5016849;28;20184;-49
2023/10/17 12:37:12;;;;;;;3.63;1.47;;;13.90;23.10;;;;;;5017422;28;20577;-48
2023/10/17 12:39:42;;;;;;;6.30;1.67;;;14.10;1.80;;;;;;5033834;28;20197;-48
2023/10/17 12:42:10;;;;;;;1.83;1.33;;;14.10;1.00;;;;;;5034011;28;20188;-47
2023/10/17 12:44:40;;;;;;;2.60;1.80;;;14.10;1.00;;;;;;5000577;28;20224;-49
2023/10/17 12:47:07;;;;;;;3.63;1.73;;;14.10;1.00;;;;;;5016086;28;20632;-49
2023/10/17 12:49:34;;;;;;;2.57;1.60;;;14.10;1.00;;;;;;5015682;28;20205;-49
2023/10/17 12:52:00;;;;;;;2.23;1.20;;;14.20;22.90;;;;;;5033538;28;20282;-49
2023/10/17 12:57:06;;;;;;;2.30;1.20;;;14.20;1.00;;;;;;4343387;26;20260;-43
2023/10/17 12:59:32;;;;;;;2.50;1.60;;;14.20;1.00;;;;;;5013985;28;20205;-43
2023/10/17 13:01:59;;;;;;;2.70;1.27;;;14.20;4.20;;;;;;5013935;28;20178;-43
2023/10/17 13:09:35;;;;;;;5.50;1.60;;;14.20;1.00;;;;;;5012391;28;20791;-43
2023/10/17 13:19:53;;;;;;;2.77;1.17;;;14.50;1.00;;;;;;5033152;28;20730;-43
2023/10/17 13:22:20;;;;;;;2.57;1.40;;;14.60;9.60;;;;;;5032851;28;20640;-43
2023/10/17 13:24:48;;;;;;;2.27;1.23;;;14.60;8.90;;;;;;5037405;28;20176;-45
2023/10/17 13:27:15;;;;;;;1.27;1.17;;;14.60;1.00;;;;;;5037567;28;20567;-44
2023/10/17 13:29:41;;;;;;;4.47;1.50;;;14.70;1.00;;;;;;5035803;28;20189;-45
2023/10/17 13:32:07;;;;;;;1.50;0.97;;;14.70;10.30;;;;;;5036018;28;20224;-43
2023/10/17 13:34:39;;;;;;;3.80;1.10;;;14.70;1.00;;;;;;5037036;28;20239;-42
2023/10/17 13:37:05;;;;;;;3.90;1.63;;;14.80;1.00;;;;;;5035961;28;20691;-43
2023/10/17 13:39:31;;;;;;;3.93;2.07;;;14.80;1.00;;;;;;5035847;28;20209;-45
2023/10/17 13:41:57;;;;;;;2.27;2.00;;;14.80;1.00;;;;;;5035671;28;20602;-44
2023/10/17 13:44:23;;;;;;;3.90;1.70;;;14.70;1.00;;;;;;5035690;28;20258;-43
2023/10/17 13:46:51;;;;;;;3.93;1.83;;;14.70;1.00;;;;;;5036273;28;20177;-45
2023/10/17 13:49:18;;;;;;;2.67;1.30;;;14.70;1.00;;;;;;5037052;28;20199;-44
2023/10/17 13:51:46;;;;;;;3.60;1.40;;;14.70;1.00;;;;;;5036037;28;20278;-44
2023/10/17 13:54:16;;;;;;;1.30;1.00;;;14.70;1.00;;;;;;5036787;28;20283;-44
2023/10/17 13:56:43;;;;;;;2.73;1.30;;;14.70;5.50;;;;;;5036797;28;20174;-42
2023/10/17 13:59:13;;;;;;;1.90;1.17;;;14.70;1.00;;;;;;5035482;28;20271;-44
2023/10/17 14:01:47;;;;;;;1.80;1.13;;;14.70;1.00;;;;;;5035185;28;20201;-42
2023/10/17 14:04:13;;;;;;;1.43;0.90;;;14.70;1.00;;;;;;5035481;28;20239;-44
2023/10/17 14:06:51;;;;;;;3.43;1.13;;;14.70;1.00;;;;;;5035717;28;20204;-42
2023/10/17 14:09:23;;;;;;;1.80;1.30;;;14.70;1.00;;;;;;5036594;28;20185;-41
2023/10/17 14:11:53;;;;;;;1.80;1.10;;;14.60;1.00;;;;;;5036443;28;20205;-43
2023/10/17 14:14:25;;;;;;;2.53;1.20;;;14.60;1.00;;;;;;5036974;28;20165;-43
2023/10/17 14:16:55;;;;;;;1.63;1.03;;;14.70;1.00;;;;;;5036888;28;20188;-43
2023/10/17 14:25:10;;;;;;;1.77;1.10;;;14.80;1.00;;;;;;5058840;22;20700;-42
2023/10/17 14:27:37;;;;;;;2.20;1.23;;;14.80;1.00;;;;;;5055866;28;20631;-44
2023/10/17 14:30:05;;;;;;;4.83;1.20;;;14.80;1.00;;;;;;5054651;28;20670;-40
2023/10/17 14:32:32;;;;;;;6.17;1.27;;;14.80;1.00;;;;;;5055804;28;20216;-42
2023/10/17 14:34:58;;;;;;;1.70;1.13;;;14.70;1.00;;;;;;5053298;28;20649;-42
2023/10/17 14:37:27;;;;;;;1.37;1.27;;;14.70;1.00;;;;;;5056079;28;20191;-43
2023/10/17 14:39:55;;;;;;;3.13;2.03;;;14.70;1.00;;;;;;5054890;28;20319;-42
2023/10/17 14:42:27;;;;;;;3.00;2.10;;;14.80;1.00;;;;;;5054737;28;20212;-42
2023/10/17 14:44:55;;;;;;;1.27;1.03;;;14.80;1.00;;;;;;5054530;28;20176;-45
2023/10/17 14:47:21;;;;;;;4.03;1.87;;;14.70;1.00;;;;;;5055789;28;20247;-44
2023/10/17 14:49:48;;;;;;;1.87;1.27;;;14.70;1.00;;;;;;5055527;28;20200;-42
2023/10/17 14:52:15;;;;;;;2.13;1.00;;;14.70;1.00;;;;;;5055678;28;20709;-44
2023/10/17 14:54:42;;;;;;;2.27;1.53;;;14.60;1.00;;;;;;5054277;28;20192;-45
2023/10/17 14:57:09;;;;;;;2.13;1.40;;;14.60;1.00;;;;;;5054140;28;20267;-42
2023/10/17 14:59:40;;;;;;;2.23;1.30;;;14.60;1.00;;;;;;5055294;28;20255;-42
2023/10/17 15:02:07;;;;;;;1.40;1.10;;;14.50;1.00;;;;;;5054110;28;20191;-43
2023/10/17 15:04:35;;;;;;;3.13;1.50;;;14.50;1.00;;;;;;5055491;28;20183;-43
2023/10/17 15:07:03;;;;;;;1.33;1.10;;;14.40;1.00;;;;;;5055157;28;20195;-43
2023/10/17 15:09:29;;;;;;;2.13;1.10;;;14.30;1.00;;;;;;5053813;28;20223;-41
2023/10/17 15:11:56;;;;;;;2.20;1.13;;;14.30;1.00;;;;;;5054132;28;20188;-43
2023/10/17 15:14:22;;;;;;;2.27;0.97;;;14.20;1.00;;;;;;5053743;28;20195;-42
2023/10/17 15:16:49;;;;;;;2.30;1.10;;;14.20;1.00;;;;;;5055055;28;20180;-41
2023/10/17 15:19:15;;;;;;;1.50;1.20;;;14.10;1.00;;;;;;5053713;28;20257;-43
2023/10/17 15:21:41;;;;;;;2.07;1.60;;;14.00;1.00;;;;;;5053680;28;20219;-44
2023/10/17 15:24:12;;;;;;;1.67;0.90;;;14.00;1.00;;;;;;5055117;28;20659;-42
2023/10/17 15:26:38;;;;;;;3.07;1.10;;;13.90;1.00;;;;;;5055186;28;20196;-43
2023/10/17 15:29:05;;;;;;;1.93;1.00;;;13.90;2.20;;;;;;5054760;28;20219;-43
2023/10/17 15:31:31;;;;;;;1.20;1.10;;;13.80;12.90;;;;;;5054689;28;20679;-44
2023/10/17 15:33:57;;;;;;;3.47;1.20;;;13.80;18.40;;;;;;5053388;28;20180;-43
2023/10/17 15:36:27;;;;;;;3.07;1.33;;;13.70;7.20;;;;;;5054889;28;20314;-43
2023/10/17 15:38:53;;;;;;;2.63;1.50;;;13.60;14.40;;;;;;5054824;28;20226;-43
2023/10/17 15:41:21;;;;;;;1.30;1.20;;;13.50;5.60;;;;;;5054488;28;20725;-43
2023/10/17 15:43:47;;;;;;;3.60;1.17;;;13.50;7.00;;;;;;5053371;28;20175;-45
2023/10/17 15:46:15;;;;;;;1.57;1.07;;;13.40;20.90;;;;;;5054036;28;20234;-44
2023/10/17 15:48:44;;;;;;;2.37;1.13;;;13.30;19.50;;;;;;5053158;28;20181;-45
2023/10/17 15:51:17;;;;;;;4.23;1.30;;;13.20;19.50;;;;;;5054261;28;20664;-41
2023/10/17 15:53:44;;;;;;;2.20;1.37;;;13.10;18.10;;;;;;5054398;28;20560;-45
2023/10/17 15:56:12;;;;;;;2.63;1.50;;;13.00;23.30;;;;;;5054323;28;20682;-42
2023/10/17 15:58:38;;;;;;;1.57;1.30;;;12.90;30.00;;;;;;5053110;28;20666;-42
2023/10/17 16:01:05;;;;;;;1.93;1.20;;;12.80;36.00;;;;;;5054017;28;20300;-42
2023/10/17 16:03:32;;;;;;;2.50;1.33;;;12.70;40.60;;;;;;5054063;28;20705;-40
2023/10/17 16:05:59;;;;;;;2.03;1.20;;;12.60;45.40;;;;;;5054449;28;20515;-43
2023/10/17 16:08:25;;;;;;;1.47;1.00;;;12.50;49.70;;;;;;5053957;28;20249;-43
2023/10/17 16:10:56;;;;;;;4.33;1.77;;;12.40;46.90;;;;;;5053834;28;20583;-44
2023/10/17 16:13:26;;;;;;;3.97;3.40;;;12.30;48.60;;;;;;5054222;28;20175;-46
2023/10/17 16:16:00;;;;;;;3.60;2.03;;;12.20;53.00;;;;;;5053800;28;20661;-44
2023/10/17 16:18:26;;;;;;;3.27;2.20;;;12.10;54.40;;;;;;5053917;28;20606;-45
2023/10/17 16:20:52;;;;;;;3.90;2.87;;;12.00;52.80;;;;;;5053949;28;20224;-43
2023/10/17 16:23:18;;;;;;;5.07;3.13;;;12.00;54.60;;;;;;5052519;28;20180;-44
2023/10/17 16:25:58;;;;;;;5.33;3.60;;;11.80;54.30;;;;;;5052341;28;20665;-43
2023/10/17 16:28:24;;;;;;;6.00;2.83;;;11.70;56.90;;;;;;5053829;28;20156;-44
2023/10/17 16:30:51;;;;;;;3.40;2.47;;;11.60;58.70;;;;;;5052336;28;20200;-41
2023/10/17 16:33:17;;;;;;;8.53;4.03;;;11.60;60.90;;;;;;5052404;28;20203;-44
2023/10/17 16:35:44;;;;;;;5.90;2.50;;;11.40;60.00;;;;;;5052371;28;20190;-44
2023/10/17 16:38:10;;;;;;;2.87;2.07;;;11.30;62.70;;;;;;5052611;28;20524;-41
2023/10/17 16:40:41;;;;;;;3.53;2.30;;;11.20;65.70;;;;;;5053681;28;20220;-43
2023/10/17 16:43:07;;;;;;;4.80;3.33;;;11.10;66.70;;;;;;5053499;28;20173;-44
2023/10/17 16:45:32;;;;;;;3.80;3.40;;;11.00;66.50;;;;;;5052176;28;20185;-44
2023/10/17 16:47:59;;;;;;;4.57;3.03;;;10.90;68.90;;;;;;5052252;28;20267;-41
2023/10/17 16:50:25;;;;;;;4.33;3.50;;;10.80;70.70;;;;;;5035636;28;20214;-43
2023/10/17 16:52:51;;;;;;;3.53;2.90;;;10.70;74.60;;;;;;5052054;28;20740;-43
2023/10/17 16:55:18;;;;;;;3.30;2.50;;;10.60;76.10;;;;;;5052027;28;20191;-43
2023/10/17 16:57:44;;;;;;;3.83;2.67;;;10.50;74.90;;;;;;5051370;28;20180;-45
2023/10/17 17:00:13;;;;;;;2.93;2.13;;;10.40;77.10;;;;;;5051855;28;20556;-44
2023/10/17 17:02:42;;;;;;;3.53;2.23;;;10.30;79.70;;;;;;5053509;28;20555;-42
2023/10/17 17:05:11;;;;;;;6.33;4.10;;;10.20;82.00;;;;;;5053132;28;20223;-44
2023/10/17 17:07:38;;;;;;;3.83;2.90;;;10.10;83.30;;;;;;5051951;28;20184;-44
2023/10/17 17:10:13;;;;;;;4.13;2.70;;;10.10;83.60;;;;;;5051905;28;20208;-44
2023/10/17 17:12:41;;;;;;;4.23;2.90;;;9.90;83.80;;;;;;5053482;28;20171;-43
2023/10/17 17:15:10;;;;;;;3.87;1.90;;;9.90;85.50;;;;;;5053149;28;20632;-45
2023/10/17 17:17:36;;;;;;;2.47;1.80;;;9.80;86.80;;;;;;5053450;28;20202;-43
2023/10/17 17:20:03;;;;;;;4.10;2.20;;;9.70;85.80;;;;;;5052932;28;20211;-42
2023/10/17 17:22:29;;;;;;;2.80;1.90;;;9.70;89.00;;;;;;5051732;28;20214;-45
2023/10/17 17:24:55;;;;;;;2.60;2.37;;;9.60;88.30;;;;;;5053103;28;20651;-45
2023/10/17 17:29:57;;;;;;;3.10;2.73;;;9.50;90.30;;;;;;5234915;22;20236;-44
2023/10/17 17:43:04;;;;;;;3.30;2.27;;;9.20;92.10;;;;;;5016954;28;20213;-91
2023/10/17 17:45:29;;;;;;;3.83;2.70;;;10.10;93.10;;;;;;5017577;28;20193;-91
2023/10/17 17:47:55;;;;;;;4.20;2.17;;;10.30;93.50;;;;;;5017107;28;20186;-90
2023/10/17 17:50:20;;;;;;;2.50;2.17;;;9.70;95.20;;;;;;5016278;28;20201;-90
2023/10/17 17:52:47;;;;;;;3.67;2.60;;;11.00;95.60;;;;;;5017777;28;20189;-90
2023/10/17 17:55:14;;;;;;;3.17;2.40;;;11.30;96.60;;;;;;5018260;28;20189;-86
2023/10/17 17:57:40;;;;;;;4.90;2.20;;;10.50;95.90;;;;;;5017200;28;20174;-87
2023/10/17 18:00:08;;;;;;;3.10;1.80;;;11.20;96.10;;;;;;5015452;28;20212;-90
2023/10/17 18:02:34;;;;;;;7.87;1.70;;;8.70;93.70;;;;;;5017065;28;20273;-91
2023/10/17 18:05:00;;;;;;;2.97;1.63;;;9.90;94.80;;;;;;5017177;28;20180;-88
2023/10/17 18:07:27;;;;;;;4.00;1.70;;;8.70;95.10;;;;;;5018345;28;20178;-89
2023/10/17 18:09:52;;;;;;;3.87;2.00;;;9.50;93.10;;;;;;5019535;28;20208;-85
2023/10/17 18:12:18;;;;;;;3.97;2.20;;;8.90;91.90;;;;;;5020229;28;20178;-88
2023/10/17 18:14:44;;;;;;;3.50;2.00;;;8.80;92.10;;;;;;5019560;28;20602;-88
2023/10/17 18:17:11;;;;;;;3.73;2.70;;;10.50;92.70;;;;;;5019767;28;20189;-91
2023/10/17 18:19:39;;;;;;;4.60;2.23;;;9.00;91.90;;;;;;5020292;28;20232;-88
2023/10/17 18:22:06;;;;;;;3.83;2.10;;;9.80;91.30;;;;;;5020698;28;20173;-88
2023/10/17 18:24:32;;;;;;;3.13;1.97;;;9.70;91.00;;;;;;5019636;28;20188;-88
2023/10/17 18:27:00;;;;;;;2.43;2.00;;;8.90;91.80;;;;;;5020116;28;20174;-87
2023/10/17 18:29:28;;;;;;;3.60;2.27;;;10.60;92.90;;;;;;5019091;28;20205;-88
2023/10/17 18:31:53;;;;;;;3.20;2.10;;;9.70;94.10;;;;;;5019659;28;20533;-88
2023/10/17 18:34:22;;;;;;;3.20;2.10;;;9.20;94.60;;;;;;5018876;28;20224;-90
2023/10/17 18:36:48;;;;;;;7.80;2.17;;;8.70;94.60;;;;;;5020165;28;20188;-89
2023/10/17 18:39:14;;;;;;;6.10;2.63;;;10.60;95.00;;;;;;5020489;28;20239;-88
2023/10/17 18:41:40;;;;;;;5.87;2.50;;;10.30;95.50;;;;;;5019935;28;20197;-89
2023/10/17 18:44:07;;;;;;;4.77;2.47;;;10.20;95.30;;;;;;5020390;28;20524;-90
2023/10/17 18:46:33;;;;;;;4.23;2.17;;;8.90;95.30;;;;;;5020064;28;20264;-87
2023/10/17 18:48:59;;;;;;;5.20;2.60;;;9.80;96.40;;;;;;5018534;28;20617;-90
2023/10/17 18:51:24;;;;;;;3.13;2.37;;;9.40;96.80;;;;;;5017815;28;20235;-89
2023/10/17 18:53:51;;;;;;;5.57;2.43;;;9.20;96.40;;;;;;5018819;28;20185;-89
2023/10/17 18:56:17;;;;;;;4.70;3.30;;;9.90;97.20;;;;;;5018478;28;20272;-89
2023/10/17 18:58:43;;;;;;;3.53;2.63;;;9.60;97.50;;;;;;5018040;28;20228;-90
2023/10/17 19:01:10;;;;;;;6.70;3.03;;;9.70;98.50;;;;;;5018219;28;20212;-88
2023/10/17 19:03:37;;;;;;;5.03;2.47;;;9.50;98.40;;;;;;5018098;28;20176;-90
2023/10/17 19:06:05;;;;;;;4.37;1.93;;;9.30;98.90;;;;;;5018118;28;20234;-87
2023/10/17 19:08:31;;;;;;;3.07;2.40;;;8.30;99.40;;;;;;5017971;28;20220;-89
2023/10/17 19:10:58;;;;;;;4.67;2.73;;;10.40;99.90;;;;;;5018634;28;20649;-90
2023/10/17 19:13:24;;;;;;;4.33;2.50;;;9.50;99.90;;;;;;5018087;28;20598;-90
2023/10/17 19:15:51;;;;;;;7.70;3.67;;;8.20;99.90;;;;;;5018906;28;20195;-90
2023/10/17 19:18:17;;;;;;;3.83;3.13;;;9.70;99.90;;;;;;5018404;28;20261;-89
2023/10/17 19:20:43;;;;;;;4.03;2.80;;;8.30;99.90;;;;;;5016739;28;20209;-87
2023/10/17 19:23:10;;;;;;;2.90;2.60;;;9.30;99.90;;;;;;5017743;28;20182;-86
2023/10/17 19:25:36;;;;;;;4.73;3.30;;;8.30;99.90;;;;;;5017608;28;20175;-89
2023/10/17 19:28:05;;;;;;;7.33;4.17;;;8.30;99.90;;;;;;5017527;28;20215;-90
2023/10/17 19:30:31;;;;;;;6.87;3.43;;;9.00;99.90;;;;;;5013222;28;20191;-89
2023/10/17 19:32:58;;;;;;;4.80;3.30;;;9.30;99.90;;;;;;5017724;28;20192;-85
2023/10/17 19:35:26;;;;;;;9.23;5.30;;;10.00;99.90;;;;;;5017022;28;20193;-93
2023/10/17 19:37:53;;;;;;;6.50;4.83;;;8.30;99.90;;;;;;5017245;28;20714;-91
2023/10/17 19:40:20;;;;;;;8.30;4.30;;;9.50;99.90;;;;;;5018482;28;20231;-92
2023/10/17 19:42:47;;;;;;;8.23;4.43;;;10.20;99.90;;;;;;5018951;28;20729;-90
2023/10/17 19:45:20;;;;;;;6.07;3.73;;;9.90;99.90;;;;;;5020242;28;20187;-88
2023/10/17 19:47:49;;;;;;;6.03;3.63;;;8.20;99.90;;;;;;5019732;28;20177;-90
2023/10/17 19:50:19;;;;;;;8.20;4.20;;;8.90;99.90;;;;;;5020002;28;20616;-90
2023/10/17 19:52:46;;;;;;;5.10;3.80;;;8.40;99.90;;;;;;5019327;28;20271;-91
2023/10/17 19:55:13;;;;;;;5.80;3.67;;;8.20;99.90;;;;;;5019472;28;20252;-88
2023/10/17 19:57:47;;;;;;;6.27;3.93;;;9.50;99.90;;;;;;5019252;28;20559;-87
2023/10/17 20:00:16;;;;;;;8.87;4.50;;;8.10;99.90;;;;;;5018777;28;20223;-88
2023/10/17 20:02:46;;;;;;;4.77;4.00;;;8.10;99.90;;;;;;5019603;28;20324;-88
2023/10/17 20:05:12;;;;;;;12.07;4.60;;;8.10;99.90;;;;;;5019861;28;20230;-89
2023/10/17 20:07:38;;;;;;;6.57;4.33;;;9.40;99.90;;;;;;5022001;28;20179;-90
2023/10/17 20:10:08;;;;;;;7.50;4.73;;;9.40;99.90;;;;;;5017954;28;20293;-89
2023/10/17 20:12:37;;;;;;;10.43;5.53;;;8.10;99.90;;;;;;5018346;28;20184;-90
2023/10/17 20:15:08;;;;;;;12.43;5.70;;;8.30;99.90;;;;;;5017675;28;20187;-90
2023/10/17 20:17:36;;;;;;;11.27;5.50;;;8.10;99.90;;;;;;5018482;28;20187;-89
2023/10/17 20:20:06;;;;;;;10.43;5.03;;;8.10;99.90;;;;;;5018585;28;20599;-89
2023/10/17 20:22:32;;;;;;;5.23;4.10;;;8.20;99.90;;;;;;5018231;28;20205;-91
2023/10/17 20:24:58;;;;;;;5.20;3.93;;;8.10;99.90;;;;;;5018420;28;20177;-89
2023/10/17 20:27:24;;;;;;;6.47;3.93;;;9.00;99.90;;;;;;5018170;28;20183;-89
2023/10/17 20:29:50;;;;;;;8.23;4.13;;;9.30;99.90;;;;;;5018032;28;20207;-89
2023/10/17 20:32:17;;;;;;;9.97;4.10;;;9.50;99.90;;;;;;5000746;28;20195;-90
2023/10/17 20:34:46;;;;;;;6.57;4.37;;;8.30;99.90;;;;;;5017675;28;20227;-87
2023/10/17 20:37:12;;;;;;;6.63;4.47;;;7.80;99.90;;;;;;5017979;28;20193;-87
2023/10/17 20:39:39;;;;;;;5.17;4.10;;;7.70;99.90;;;;;;5017277;28;20225;-91
2023/10/17 20:42:04;;;;;;;7.93;4.67;;;8.40;99.90;;;;;;5017528;28;20199;-88